sensor_id;sensor_type;location;lat;lon;timestamp;P1;P2;P0
73825;PMS5003;64145;55.060;73.168;2023-04-28T00:00:41;6.00;5.00;3.00
73825;PMS5003;64145;55.060;73.168;2023-04-28T00:03:06;6.00;6.00;3.67
73825;PMS5003;64145;55.060;73.168;2023-04-28T00:05:32;6.67;5.00;3.00
73825;PMS5003;64145;55.060;73.168;2023-04-28T00:07:57;6.00;5.33;4.00
73825;PMS5003;64145;55.060;73.168;2023-04-28T00:10:23;5.00;4.00;2.00
73825;PMS5003;64145;55.060;73.168;2023-04-28T00:12:49;6.33;6.33;2.67
73825;PMS5003;64145;55.060;73.168;2023-04-28T00:15:14;4.00;3.00;2.00
73825;PMS5003;64145;55.060;73.168;2023-04-28T00:17:40;5.00;5.00;3.00
73825;PMS5003;64145;55.060;73.168;2023-04-28T00:20:06;3.67;3.67;2.00
73825;PMS5003;64145;55.060;73.168;2023-04-28T00:22:31;5.50;5.00;3.00
73825;PMS5003;64145;55.060;73.168;2023-04-28T00:24:57;8.00;7.00;4.00
73825;PMS5003;64145;55.060;73.168;2023-04-28T00:27:32;9.00;8.25;5.00
73825;PMS5003;64145;55.060;73.168;2023-04-28T00:29:58;7.25;7.25;3.50
73825;PMS5003;64145;55.060;73.168;2023-04-28T00:32:34;5.00;5.00;2.75
73825;PMS5003;64145;55.060;73.168;2023-04-28T00:34:59;4.00;3.00;2.00
73825;PMS5003;64145;55.060;73.168;2023-04-28T00:37:25;6.33;6.00;2.00
73825;PMS5003;64145;55.060;73.168;2023-04-28T00:39:55;5.50;5.00;4.00
73825;PMS5003;64145;55.060;73.168;2023-04-28T00:42:20;5.00;5.00;3.00
73825;PMS5003;64145;55.060;73.168;2023-04-28T00:44:46;5.00;5.00;2.33
73825;PMS5003;64145;55.060;73.168;2023-04-28T00:47:11;4.00;4.00;2.00
73825;PMS5003;64145;55.060;73.168;2023-04-28T00:49:37;5.67;5.00;4.00
73825;PMS5003;64145;55.060;73.168;2023-04-28T00:52:13;5.00;4.00;3.00
73825;PMS5003;64145;55.060;73.168;2023-04-28T00:57:33;6.50;6.00;3.00
73825;PMS5003;64145;55.060;73.168;2023-04-28T00:59:59;5.00;5.00;2.00
73825;PMS5003;64145;55.060;73.168;2023-04-28T01:02:34;4.00;4.00;2.75
73825;PMS5003;64145;55.060;73.168;2023-04-28T01:10:47;6.00;6.00;4.00
73825;PMS5003;64145;55.060;73.168;2023-04-28T01:13:12;4.67;4.67;3.00
73825;PMS5003;64145;55.060;73.168;2023-04-28T01:15:38;4.33;4.33;3.00
73825;PMS5003;64145;55.060;73.168;2023-04-28T01:18:04;6.00;5.75;3.00
73825;PMS5003;64145;55.060;73.168;2023-04-28T01:20:29;7.67;7.00;4.00
73825;PMS5003;64145;55.060;73.168;2023-04-28T01:23:00;6.00;6.00;4.00
73825;PMS5003;64145;55.060;73.168;2023-04-28T01:25:25;5.33;5.33;3.00
73825;PMS5003;64145;55.060;73.168;2023-04-28T01:28:01;5.00;5.00;3.00
73825;PMS5003;64145;55.060;73.168;2023-04-28T01:30:45;7.00;7.00;4.00
73825;PMS5003;64145;55.060;73.168;2023-04-28T01:33:11;6.67;6.67;4.00
73825;PMS5003;64145;55.060;73.168;2023-04-28T01:35:58;5.25;5.25;2.00
73825;PMS5003;64145;55.060;73.168;2023-04-28T01:38:23;5.00;4.50;3.00
73825;PMS5003;64145;55.060;73.168;2023-04-28T01:40:49;4.00;4.00;1.33
73825;PMS5003;64145;55.060;73.168;2023-04-28T01:43:14;5.33;5.33;1.00
73825;PMS5003;64145;55.060;73.168;2023-04-28T01:45:47;6.00;6.00;2.25
73825;PMS5003;64145;55.060;73.168;2023-04-28T01:48:31;5.00;4.75;2.50
73825;PMS5003;64145;55.060;73.168;2023-04-28T01:51:15;4.00;4.00;1.00
73825;PMS5003;64145;55.060;73.168;2023-04-28T01:53:41;5.00;3.67;1.00
73825;PMS5003;64145;55.060;73.168;2023-04-28T01:56:25;3.00;3.00;2.00
73825;PMS5003;64145;55.060;73.168;2023-04-28T01:58:51;4.00;4.00;2.00
73825;PMS5003;64145;55.060;73.168;2023-04-28T02:01:21;3.00;3.00;2.50
73825;PMS5003;64145;55.060;73.168;2023-04-28T02:03:57;4.00;4.00;2.00
73825;PMS5003;64145;55.060;73.168;2023-04-28T02:06:22;5.00;4.00;2.00
73825;PMS5003;64145;55.060;73.168;2023-04-28T02:08:48;4.00;3.33;2.00
73825;PMS5003;64145;55.060;73.168;2023-04-28T02:11:32;4.00;3.00;3.00
73825;PMS5003;64145;55.060;73.168;2023-04-28T02:13:57;4.00;4.00;2.00
73825;PMS5003;64145;55.060;73.168;2023-04-28T02:16:23;3.00;3.00;1.00
73825;PMS5003;64145;55.060;73.168;2023-04-28T02:18:48;5.67;5.00;3.00
73825;PMS5003;64145;55.060;73.168;2023-04-28T02:21:19;4.00;4.00;3.50
73825;PMS5003;64145;55.060;73.168;2023-04-28T02:23:45;3.00;3.00;3.00
73825;PMS5003;64145;55.060;73.168;2023-04-28T02:26:10;4.00;4.00;2.00
73825;PMS5003;64145;55.060;73.168;2023-04-28T02:28:41;4.25;4.00;2.00
73825;PMS5003;64145;55.060;73.168;2023-04-28T02:31:08;4.00;4.00;2.00
73825;PMS5003;64145;55.060;73.168;2023-04-28T02:33:38;3.00;3.00;1.00
73825;PMS5003;64145;55.060;73.168;2023-04-28T02:36:04;4.00;2.00;1.00
73825;PMS5003;64145;55.060;73.168;2023-04-28T02:38:30;3.00;2.00;1.00
73825;PMS5003;64145;55.060;73.168;2023-04-28T02:40:56;4.00;3.00;1.00
73825;PMS5003;64145;55.060;73.168;2023-04-28T02:43:22;3.00;2.00;0.00
73825;PMS5003;64145;55.060;73.168;2023-04-28T02:45:48;2.00;2.00;0.00
73825;PMS5003;64145;55.060;73.168;2023-04-28T02:48:13;3.00;3.00;0.00
73825;PMS5003;64145;55.060;73.168;2023-04-28T02:50:39;3.67;3.33;0.00
73825;PMS5003;64145;55.060;73.168;2023-04-28T02:53:04;2.33;1.00;0.00
73825;PMS5003;64145;55.060;73.168;2023-04-28T02:55:35;4.00;3.00;1.00
73825;PMS5003;64145;55.060;73.168;2023-04-28T02:58:01;8.00;8.00;4.00
73825;PMS5003;64145;55.060;73.168;2023-04-28T03:00:26;8.00;8.00;5.00
73825;PMS5003;64145;55.060;73.168;2023-04-28T03:02:52;6.00;6.00;4.00
73825;PMS5003;64145;55.060;73.168;2023-04-28T03:05:17;5.00;5.00;4.00
73825;PMS5003;64145;55.060;73.168;2023-04-28T03:07:53;6.00;5.00;3.00
73825;PMS5003;64145;55.060;73.168;2023-04-28T03:10:18;3.00;2.00;1.00
73825;PMS5003;64145;55.060;73.168;2023-04-28T03:12:54;5.00;5.00;1.00
73825;PMS5003;64145;55.060;73.168;2023-04-28T03:15:20;5.00;3.00;1.00
73825;PMS5003;64145;55.060;73.168;2023-04-28T03:17:45;5.33;5.33;1.33
73825;PMS5003;64145;55.060;73.168;2023-04-28T03:20:11;5.00;5.00;2.00
73825;PMS5003;64145;55.060;73.168;2023-04-28T03:22:37;4.00;3.25;0.25
73825;PMS5003;64145;55.060;73.168;2023-04-28T03:25:02;3.00;3.00;1.00
73825;PMS5003;64145;55.060;73.168;2023-04-28T03:27:29;3.00;3.00;1.00
73825;PMS5003;64145;55.060;73.168;2023-04-28T03:29:55;2.00;2.00;2.00
73825;PMS5003;64145;55.060;73.168;2023-04-28T03:32:21;4.00;3.00;2.00
73825;PMS5003;64145;55.060;73.168;2023-04-28T03:34:46;4.33;3.00;1.00
73825;PMS5003;64145;55.060;73.168;2023-04-28T03:40:00;7.00;4.50;0.25
73825;PMS5003;64145;55.060;73.168;2023-04-28T03:42:26;5.33;4.00;1.00
73825;PMS5003;64145;55.060;73.168;2023-04-28T03:44:51;3.00;3.00;0.00
73825;PMS5003;64145;55.060;73.168;2023-04-28T03:47:28;4.00;4.00;1.25
73825;PMS5003;64145;55.060;73.168;2023-04-28T03:49:53;3.00;3.00;1.67
73825;PMS5003;64145;55.060;73.168;2023-04-28T03:52:19;6.00;5.00;3.00
73825;PMS5003;64145;55.060;73.168;2023-04-28T03:54:45;4.00;4.00;2.00
73825;PMS5003;64145;55.060;73.168;2023-04-28T04:00:12;5.25;5.00;3.00
73825;PMS5003;64145;55.060;73.168;2023-04-28T04:02:38;6.00;5.00;2.00
73825;PMS5003;64145;55.060;73.168;2023-04-28T04:05:04;6.00;6.00;3.00
73825;PMS5003;64145;55.060;73.168;2023-04-28T04:07:29;5.67;4.00;3.00
73825;PMS5003;64145;55.060;73.168;2023-04-28T04:09:55;5.00;4.00;3.00
73825;PMS5003;64145;55.060;73.168;2023-04-28T04:12:21;6.33;5.33;2.33
73825;PMS5003;64145;55.060;73.168;2023-04-28T04:14:46;5.00;4.00;2.00
73825;PMS5003;64145;55.060;73.168;2023-04-28T04:17:12;6.00;6.00;4.00
73825;PMS5003;64145;55.060;73.168;2023-04-28T04:19:47;8.25;8.00;5.00
73825;PMS5003;64145;55.060;73.168;2023-04-28T04:22:23;7.00;7.00;5.00
73825;PMS5003;64145;55.060;73.168;2023-04-28T04:24:48;9.33;8.00;5.00
73825;PMS5003;64145;55.060;73.168;2023-04-28T04:27:24;7.00;7.00;4.25
73825;PMS5003;64145;55.060;73.168;2023-04-28T04:29:49;8.00;7.00;4.50
73825;PMS5003;64145;55.060;73.168;2023-04-28T04:32:15;5.33;5.33;2.00
73825;PMS5003;64145;55.060;73.168;2023-04-28T04:34:41;4.33;3.33;2.00
73825;PMS5003;64145;55.060;73.168;2023-04-28T04:37:07;4.00;3.00;1.00
73825;PMS5003;64145;55.060;73.168;2023-04-28T04:39:33;3.00;3.00;1.25
73825;PMS5003;64145;55.060;73.168;2023-04-28T04:42:08;4.25;4.00;1.00
73825;PMS5003;64145;55.060;73.168;2023-04-28T04:44:52;3.50;3.50;1.00
73825;PMS5003;64145;55.060;73.168;2023-04-28T04:47:24;3.00;3.00;1.00
73825;PMS5003;64145;55.060;73.168;2023-04-28T04:49:49;3.67;3.67;1.00
73825;PMS5003;64145;55.060;73.168;2023-04-28T04:52:15;4.00;4.00;1.00
73825;PMS5003;64145;55.060;73.168;2023-04-28T04:54:45;2.00;2.00;1.00
73825;PMS5003;64145;55.060;73.168;2023-04-28T04:57:29;3.00;3.00;1.00
73825;PMS5003;64145;55.060;73.168;2023-04-28T04:59:54;5.00;4.67;1.00
73825;PMS5003;64145;55.060;73.168;2023-04-28T05:02:20;3.00;3.00;1.00
73825;PMS5003;64145;55.060;73.168;2023-04-28T05:04:45;5.33;4.00;1.00
73825;PMS5003;64145;55.060;73.168;2023-04-28T05:07:11;4.33;4.33;2.00
73825;PMS5003;64145;55.060;73.168;2023-04-28T05:12:21;5.25;4.25;2.00
73825;PMS5003;64145;55.060;73.168;2023-04-28T05:14:46;6.00;5.67;1.67
73825;PMS5003;64145;55.060;73.168;2023-04-28T05:17:12;5.00;4.00;0.00
73825;PMS5003;64145;55.060;73.168;2023-04-28T05:19:37;7.00;6.67;0.33
73825;PMS5003;64145;55.060;73.168;2023-04-28T05:22:03;5.00;5.00;2.00
73825;PMS5003;64145;55.060;73.168;2023-04-28T05:24:28;5.00;5.00;2.00
73825;PMS5003;64145;55.060;73.168;2023-04-28T05:26:55;7.00;6.00;3.67
73825;PMS5003;64145;55.060;73.168;2023-04-28T05:29:27;7.75;6.00;2.00
73825;PMS5003;64145;55.060;73.168;2023-04-28T05:32:03;10.00;8.75;4.00
73825;PMS5003;64145;55.060;73.168;2023-04-28T05:34:47;10.50;8.75;5.00
73825;PMS5003;64145;55.060;73.168;2023-04-28T05:37:13;7.33;7.33;2.00
73825;PMS5003;64145;55.060;73.168;2023-04-28T05:39:38;5.00;5.00;3.00
73825;PMS5003;64145;55.060;73.168;2023-04-28T05:42:04;6.67;5.67;3.00
73825;PMS5003;64145;55.060;73.168;2023-04-28T05:44:30;8.00;7.00;4.00
73825;PMS5003;64145;55.060;73.168;2023-04-28T05:46:55;10.00;9.00;4.25
73825;PMS5003;64145;55.060;73.168;2023-04-28T05:49:21;8.00;7.00;4.00
73825;PMS5003;64145;55.060;73.168;2023-04-28T05:51:46;11.00;9.67;4.33
73825;PMS5003;64145;55.060;73.168;2023-04-28T05:54:22;12.00;11.00;6.00
73825;PMS5003;64145;55.060;73.168;2023-04-28T05:56:48;12.00;10.33;6.33
73825;PMS5003;64145;55.060;73.168;2023-04-28T05:59:13;10.33;8.00;5.00
73825;PMS5003;64145;55.060;73.168;2023-04-28T06:01:39;8.00;7.50;6.00
73825;PMS5003;64145;55.060;73.168;2023-04-28T06:04:15;9.00;8.75;5.00
73825;PMS5003;64145;55.060;73.168;2023-04-28T06:06:40;12.00;9.00;6.00
73825;PMS5003;64145;55.060;73.168;2023-04-28T06:09:06;9.33;7.67;5.00
73825;PMS5003;64145;55.060;73.168;2023-04-28T06:11:32;10.33;9.33;5.33
73825;PMS5003;64145;55.060;73.168;2023-04-28T06:14:02;8.00;8.00;5.00
73825;PMS5003;64145;55.060;73.168;2023-04-28T06:16:27;8.00;7.00;3.00
73825;PMS5003;64145;55.060;73.168;2023-04-28T06:18:53;6.00;5.33;3.00
73825;PMS5003;64145;55.060;73.168;2023-04-28T06:21:20;7.00;7.00;3.00
73825;PMS5003;64145;55.060;73.168;2023-04-28T06:23:45;8.33;8.33;2.00
73825;PMS5003;64145;55.060;73.168;2023-04-28T06:26:22;7.00;6.25;1.00
73825;PMS5003;64145;55.060;73.168;2023-04-28T06:28:58;4.75;4.75;1.50
73825;PMS5003;64145;55.060;73.168;2023-04-28T06:36:53;4.00;3.00;1.00
73825;PMS5003;64145;55.060;73.168;2023-04-28T06:39:24;6.50;5.50;2.00
73825;PMS5003;64145;55.060;73.168;2023-04-28T06:41:50;6.00;5.00;0.00
73825;PMS5003;64145;55.060;73.168;2023-04-28T06:44:16;7.00;6.33;0.00
73825;PMS5003;64145;55.060;73.168;2023-04-28T06:46:41;6.00;6.00;2.00
73825;PMS5003;64145;55.060;73.168;2023-04-28T06:49:07;6.00;5.00;2.00
73825;PMS5003;64145;55.060;73.168;2023-04-28T06:51:39;6.75;5.75;1.00
73825;PMS5003;64145;55.060;73.168;2023-04-28T06:54:05;7.00;6.00;2.00
73825;PMS5003;64145;55.060;73.168;2023-04-28T06:56:31;6.00;4.00;1.75
73825;PMS5003;64145;55.060;73.168;2023-04-28T06:58:57;5.67;5.67;2.67
73825;PMS5003;64145;55.060;73.168;2023-04-28T07:01:28;5.25;4.50;1.00
73825;PMS5003;64145;55.060;73.168;2023-04-28T07:03:53;2.67;2.67;1.00
73825;PMS5003;64145;55.060;73.168;2023-04-28T07:06:24;3.50;3.50;1.00
73825;PMS5003;64145;55.060;73.168;2023-04-28T07:08:52;4.00;4.00;1.75
73825;PMS5003;64145;55.060;73.168;2023-04-28T07:11:17;3.25;3.25;0.00
73825;PMS5003;64145;55.060;73.168;2023-04-28T07:16:27;2.75;1.00;0.00
73825;PMS5003;64145;55.060;73.168;2023-04-28T07:18:53;3.33;2.33;0.33
73825;PMS5003;64145;55.060;73.168;2023-04-28T07:21:18;2.00;2.00;0.00
73825;PMS5003;64145;55.060;73.168;2023-04-28T07:23:45;4.50;4.50;0.00
73825;PMS5003;64145;55.060;73.168;2023-04-28T07:26:11;2.00;2.00;0.00
73825;PMS5003;64145;55.060;73.168;2023-04-28T07:28:40;3.00;2.00;0.00
73825;PMS5003;64145;55.060;73.168;2023-04-28T07:31:06;3.33;2.33;0.00
73825;PMS5003;64145;55.060;73.168;2023-04-28T07:33:31;3.00;2.00;0.00
73825;PMS5003;64145;55.060;73.168;2023-04-28T07:36:02;1.00;1.00;0.00
73825;PMS5003;64145;55.060;73.168;2023-04-28T07:38:27;1.00;1.00;0.00
73825;PMS5003;64145;55.060;73.168;2023-04-28T07:40:53;2.00;1.00;0.00
73825;PMS5003;64145;55.060;73.168;2023-04-28T07:43:19;3.67;3.67;0.00
73825;PMS5003;64145;55.060;73.168;2023-04-28T07:45:44;1.00;1.00;0.00
73825;PMS5003;64145;55.060;73.168;2023-04-28T07:48:13;2.00;2.00;0.00
73825;PMS5003;64145;55.060;73.168;2023-04-28T07:50:38;4.50;3.00;0.00
73825;PMS5003;64145;55.060;73.168;2023-04-28T07:55:48;2.50;2.50;0.00
73825;PMS5003;64145;55.060;73.168;2023-04-28T08:01:03;3.50;3.00;0.00
73825;PMS5003;64145;55.060;73.168;2023-04-28T08:03:29;3.00;3.00;0.00
73825;PMS5003;64145;55.060;73.168;2023-04-28T08:05:59;4.00;3.00;0.00
73825;PMS5003;64145;55.060;73.168;2023-04-28T08:08:34;3.00;2.00;0.00
73825;PMS5003;64145;55.060;73.168;2023-04-28T08:11:09;2.50;2.00;0.00
73825;PMS5003;64145;55.060;73.168;2023-04-28T08:13:39;4.00;3.25;1.00
73825;PMS5003;64145;55.060;73.168;2023-04-28T08:16:05;3.33;3.33;1.00
73825;PMS5003;64145;55.060;73.168;2023-04-28T08:18:31;3.00;3.00;1.00
73825;PMS5003;64145;55.060;73.168;2023-04-28T08:20:56;3.33;3.33;1.00
73825;PMS5003;64145;55.060;73.168;2023-04-28T08:23:22;4.00;4.00;1.00
73825;PMS5003;64145;55.060;73.168;2023-04-28T08:26:06;4.00;4.00;1.00
73825;PMS5003;64145;55.060;73.168;2023-04-28T08:28:36;5.00;5.00;2.00
73825;PMS5003;64145;55.060;73.168;2023-04-28T08:31:13;4.00;4.00;2.00
73825;PMS5003;64145;55.060;73.168;2023-04-28T08:33:38;6.00;5.00;2.00
73825;PMS5003;64145;55.060;73.168;2023-04-28T08:36:08;6.00;6.00;3.00
73825;PMS5003;64145;55.060;73.168;2023-04-28T08:38:36;3.00;3.00;1.00
73825;PMS5003;64145;55.060;73.168;2023-04-28T08:41:02;1.00;1.00;0.00
73825;PMS5003;64145;55.060;73.168;2023-04-28T08:43:28;4.00;4.00;1.75
73825;PMS5003;64145;55.060;73.168;2023-04-28T08:46:05;5.00;4.00;2.00
73825;PMS5003;64145;55.060;73.168;2023-04-28T08:48:31;5.75;5.75;2.50
73825;PMS5003;64145;55.060;73.168;2023-04-28T08:51:03;4.50;4.50;2.25
73825;PMS5003;64145;55.060;73.168;2023-04-28T08:53:31;6.00;6.00;4.25
73825;PMS5003;64145;55.060;73.168;2023-04-28T08:55:59;4.00;4.00;2.50
73825;PMS5003;64145;55.060;73.168;2023-04-28T08:58:36;7.50;7.50;3.50
73825;PMS5003;64145;55.060;73.168;2023-04-28T09:01:20;5.50;5.50;2.75
73825;PMS5003;64145;55.060;73.168;2023-04-28T09:03:45;8.00;8.00;4.00
73825;PMS5003;64145;55.060;73.168;2023-04-28T09:09:16;7.75;7.75;5.00
73825;PMS5003;64145;55.060;73.168;2023-04-28T09:12:05;8.00;7.75;4.00
73825;PMS5003;64145;55.060;73.168;2023-04-28T09:14:37;9.50;9.00;4.50
73825;PMS5003;64145;55.060;73.168;2023-04-28T09:17:09;14.75;13.75;9.50
73825;PMS5003;64145;55.060;73.168;2023-04-28T09:19:36;20.00;18.75;14.50
73825;PMS5003;64145;55.060;73.168;2023-04-28T09:22:02;23.50;22.50;17.50
73825;PMS5003;64145;55.060;73.168;2023-04-28T09:24:32;23.00;22.00;17.25
73825;PMS5003;64145;55.060;73.168;2023-04-28T09:26:59;25.00;21.75;17.75
73825;PMS5003;64145;55.060;73.168;2023-04-28T09:29:25;25.25;23.00;18.00
73825;PMS5003;64145;55.060;73.168;2023-04-28T09:31:52;23.25;21.00;15.25
73825;PMS5003;64145;55.060;73.168;2023-04-28T09:34:19;22.00;21.00;14.00
73825;PMS5003;64145;55.060;73.168;2023-04-28T09:36:46;22.75;20.75;13.00
73825;PMS5003;64145;55.060;73.168;2023-04-28T09:39:11;20.33;20.00;13.00
73825;PMS5003;64145;55.060;73.168;2023-04-28T09:41:41;23.00;23.00;14.00
73825;PMS5003;64145;55.060;73.168;2023-04-28T09:46:35;29.25;24.50;18.00
73825;PMS5003;64145;55.060;73.168;2023-04-28T09:49:01;25.33;23.33;18.00
73825;PMS5003;64145;55.060;73.168;2023-04-28T09:51:27;23.00;22.00;16.00
73825;PMS5003;64145;55.060;73.168;2023-04-28T09:53:52;19.00;18.33;13.00
73825;PMS5003;64145;55.060;73.168;2023-04-28T09:59:21;20.00;18.00;12.00
73825;PMS5003;64145;55.060;73.168;2023-04-28T10:02:05;20.00;19.00;10.50
73825;PMS5003;64145;55.060;73.168;2023-04-28T10:04:35;19.00;18.00;9.00
73825;PMS5003;64145;55.060;73.168;2023-04-28T10:09:46;21.00;20.00;10.25
73825;PMS5003;64145;55.060;73.168;2023-04-28T10:15:02;19.00;18.75;10.75
73825;PMS5003;64145;55.060;73.168;2023-04-28T10:17:27;17.67;17.67;9.67
73825;PMS5003;64145;55.060;73.168;2023-04-28T10:19:53;16.00;16.00;7.00
73825;PMS5003;64145;55.060;73.168;2023-04-28T10:27:29;15.00;13.00;6.25
73825;PMS5003;64145;55.060;73.168;2023-04-28T10:32:40;8.50;7.50;4.00
73825;PMS5003;64145;55.060;73.168;2023-04-28T10:38:05;6.50;6.00;4.50
73825;PMS5003;64145;55.060;73.168;2023-04-28T10:46:01;10.75;10.00;6.75
73825;PMS5003;64145;55.060;73.168;2023-04-28T10:56:18;9.00;8.00;5.00
73825;PMS5003;64145;55.060;73.168;2023-04-28T10:58:51;8.00;8.00;4.00
73825;PMS5003;64145;55.060;73.168;2023-04-28T11:01:35;7.00;7.00;4.00
73825;PMS5003;64145;55.060;73.168;2023-04-28T11:04:19;6.75;6.00;4.00
73825;PMS5003;64145;55.060;73.168;2023-04-28T11:06:44;6.00;6.00;3.00
73825;PMS5003;64145;55.060;73.168;2023-04-28T11:12:23;5.00;5.00;2.00
73825;PMS5003;64145;55.060;73.168;2023-04-28T11:14:48;5.00;5.00;1.33
73825;PMS5003;64145;55.060;73.168;2023-04-28T11:17:38;5.75;5.00;2.00
73825;PMS5003;64145;55.060;73.168;2023-04-28T11:20:33;6.00;5.00;3.00
73825;PMS5003;64145;55.060;73.168;2023-04-28T11:22:58;4.00;4.00;3.00
73825;PMS5003;64145;55.060;73.168;2023-04-28T11:25:24;7.00;5.00;2.00
73825;PMS5003;64145;55.060;73.168;2023-04-28T11:28:03;4.00;4.00;2.00
73825;PMS5003;64145;55.060;73.168;2023-04-28T11:30:47;4.00;4.00;1.00
73825;PMS5003;64145;55.060;73.168;2023-04-28T11:33:12;6.00;5.33;2.00
73825;PMS5003;64145;55.060;73.168;2023-04-28T11:35:41;6.25;6.25;2.75
73825;PMS5003;64145;55.060;73.168;2023-04-28T11:38:07;4.00;4.00;1.00
73825;PMS5003;64145;55.060;73.168;2023-04-28T11:40:33;4.00;4.00;2.00
73825;PMS5003;64145;55.060;73.168;2023-04-28T11:45:54;5.00;5.00;3.00
73825;PMS5003;64145;55.060;73.168;2023-04-28T11:48:20;5.00;5.00;2.00
73825;PMS5003;64145;55.060;73.168;2023-04-28T11:50:46;5.75;5.75;3.00
73825;PMS5003;64145;55.060;73.168;2023-04-28T11:53:12;5.00;5.00;3.00
73825;PMS5003;64145;55.060;73.168;2023-04-28T11:55:37;4.00;4.00;2.00
73825;PMS5003;64145;55.060;73.168;2023-04-28T11:58:21;4.50;4.50;1.25
73825;PMS5003;64145;55.060;73.168;2023-04-28T12:01:08;5.00;4.00;3.00
73825;PMS5003;64145;55.060;73.168;2023-04-28T12:06:27;5.00;4.00;1.00
73825;PMS5003;64145;55.060;73.168;2023-04-28T12:11:38;5.00;5.00;2.00
73825;PMS5003;64145;55.060;73.168;2023-04-28T12:14:16;22.25;20.50;14.00
73825;PMS5003;64145;55.060;73.168;2023-04-28T12:19:53;10.00;9.75;5.25
73825;PMS5003;64145;55.060;73.168;2023-04-28T12:22:19;10.00;10.00;5.50
73825;PMS5003;64145;55.060;73.168;2023-04-28T12:24:45;48.33;41.00;29.00
73825;PMS5003;64145;55.060;73.168;2023-04-28T12:29:40;253.25;243.25;170.25
73825;PMS5003;64145;55.060;73.168;2023-04-28T12:32:11;326.75;315.00;212.50
73825;PMS5003;64145;55.060;73.168;2023-04-28T12:34:37;359.33;346.67;236.67
73825;PMS5003;64145;55.060;73.168;2023-04-28T12:37:04;386.75;372.75;252.00
73825;PMS5003;64145;55.060;73.168;2023-04-28T12:39:30;461.00;443.67;281.33
73825;PMS5003;64145;55.060;73.168;2023-04-28T12:42:06;501.25;481.50;295.50
73825;PMS5003;64145;55.060;73.168;2023-04-28T12:44:32;533.00;512.33;311.67
73825;PMS5003;64145;55.060;73.168;2023-04-28T12:47:26;527.00;502.75;311.00
73825;PMS5003;64145;55.060;73.168;2023-04-28T12:49:52;504.67;485.67;304.33
73825;PMS5003;64145;55.060;73.168;2023-04-28T12:52:18;480.00;462.33;294.00
73825;PMS5003;64145;55.060;73.168;2023-04-28T12:54:44;468.75;451.25;289.50
73825;PMS5003;64145;55.060;73.168;2023-04-28T12:57:21;426.50;413.25;268.50
73825;PMS5003;64145;55.060;73.168;2023-04-28T12:59:56;405.25;393.75;265.25
73825;PMS5003;64145;55.060;73.168;2023-04-28T13:02:22;415.00;399.33;264.33
73825;PMS5003;64145;55.060;73.168;2023-04-28T13:04:48;418.50;402.75;264.50
73825;PMS5003;64145;55.060;73.168;2023-04-28T13:07:14;417.67;401.00;267.00
73825;PMS5003;64145;55.060;73.168;2023-04-28T13:09:40;429.00;415.00;273.00
73825;PMS5003;64145;55.060;73.168;2023-04-28T13:12:07;429.50;414.50;273.50
73825;PMS5003;64145;55.060;73.168;2023-04-28T13:14:32;423.67;407.67;272.67
73825;PMS5003;64145;55.060;73.168;2023-04-28T13:17:03;406.00;393.00;266.00
73825;PMS5003;64145;55.060;73.168;2023-04-28T13:19:29;373.67;358.00;245.00
73825;PMS5003;64145;55.060;73.168;2023-04-28T13:22:00;364.75;348.50;240.25
73825;PMS5003;64145;55.060;73.168;2023-04-28T13:24:29;344.50;334.00;231.50
73825;PMS5003;64145;55.060;73.168;2023-04-28T13:26:54;323.00;312.00;214.33
73825;PMS5003;64145;55.060;73.168;2023-04-28T13:29:30;265.50;256.50;181.25
73825;PMS5003;64145;55.060;73.168;2023-04-28T13:32:02;250.75;243.75;174.25
73825;PMS5003;64145;55.060;73.168;2023-04-28T13:34:29;261.00;249.25;178.75
73825;PMS5003;64145;55.060;73.168;2023-04-28T13:39:39;283.25;270.00;191.00
73825;PMS5003;64145;55.060;73.168;2023-04-28T13:42:05;300.00;287.67;204.00
73825;PMS5003;64145;55.060;73.168;2023-04-28T13:44:31;293.00;281.50;197.00
73825;PMS5003;64145;55.060;73.168;2023-04-28T13:46:56;290.33;281.00;198.00
73825;PMS5003;64145;55.060;73.168;2023-04-28T13:49:22;290.33;282.33;196.67
73825;PMS5003;64145;55.060;73.168;2023-04-28T13:51:53;288.00;274.50;194.00
73825;PMS5003;64145;55.060;73.168;2023-04-28T13:54:23;287.00;273.25;192.50
73825;PMS5003;64145;55.060;73.168;2023-04-28T13:56:59;278.00;267.75;188.50
73825;PMS5003;64145;55.060;73.168;2023-04-28T13:59:30;236.00;228.50;161.25
73825;PMS5003;64145;55.060;73.168;2023-04-28T14:01:56;188.33;183.00;133.00
73825;PMS5003;64145;55.060;73.168;2023-04-28T14:04:40;180.25;175.50;127.00
73825;PMS5003;64145;55.060;73.168;2023-04-28T14:07:12;182.75;175.25;128.75
73825;PMS5003;64145;55.060;73.168;2023-04-28T14:09:38;166.25;160.50;117.75
73825;PMS5003;64145;55.060;73.168;2023-04-28T14:17:38;138.00;132.00;101.50
73825;PMS5003;64145;55.060;73.168;2023-04-28T14:20:04;137.33;134.67;99.67
73825;PMS5003;64145;55.060;73.168;2023-04-28T14:22:30;138.75;135.50;102.25
73825;PMS5003;64145;55.060;73.168;2023-04-28T14:25:05;152.00;147.25;111.00
73825;PMS5003;64145;55.060;73.168;2023-04-28T14:27:32;165.75;158.00;118.50
73825;PMS5003;64145;55.060;73.168;2023-04-28T14:30:08;306.25;292.75;197.50
73825;PMS5003;64145;55.060;73.168;2023-04-28T14:35:18;460.00;442.75;280.50
73825;PMS5003;64145;55.060;73.168;2023-04-28T14:40:30;525.75;499.75;300.00
73825;PMS5003;64145;55.060;73.168;2023-04-28T14:42:55;552.75;529.25;315.75
73825;PMS5003;64145;55.060;73.168;2023-04-28T14:45:25;563.00;540.25;316.25
73825;PMS5003;64145;55.060;73.168;2023-04-28T14:50:41;535.75;508.75;301.75
73825;PMS5003;64145;55.060;73.168;2023-04-28T14:53:17;509.25;485.00;291.75
73825;PMS5003;64145;55.060;73.168;2023-04-28T14:55:43;497.33;475.33;291.67
73825;PMS5003;64145;55.060;73.168;2023-04-28T14:58:08;493.67;470.33;293.33
73825;PMS5003;64145;55.060;73.168;2023-04-28T15:00:34;466.00;447.00;284.33
73825;PMS5003;64145;55.060;73.168;2023-04-28T15:03:18;471.00;449.00;282.50
73825;PMS5003;64145;55.060;73.168;2023-04-28T15:05:54;471.50;455.00;283.75
73825;PMS5003;64145;55.060;73.168;2023-04-28T15:11:04;444.75;430.00;270.75
73825;PMS5003;64145;55.060;73.168;2023-04-28T15:13:35;446.25;429.50;269.50
73825;PMS5003;64145;55.060;73.168;2023-04-28T15:16:01;458.25;438.00;273.75
73825;PMS5003;64145;55.060;73.168;2023-04-28T15:18:27;471.67;450.33;281.33
73825;PMS5003;64145;55.060;73.168;2023-04-28T15:20:53;459.33;443.00;276.67
73825;PMS5003;64145;55.060;73.168;2023-04-28T15:23:37;477.00;455.00;279.50
73825;PMS5003;64145;55.060;73.168;2023-04-28T15:26:12;506.75;487.75;292.75
73825;PMS5003;64145;55.060;73.168;2023-04-28T15:31:31;510.50;486.00;292.50
73825;PMS5003;64145;55.060;73.168;2023-04-28T15:36:42;520.25;498.25;293.75
73825;PMS5003;64145;55.060;73.168;2023-04-28T15:39:07;512.67;488.67;290.67
73825;PMS5003;64145;55.060;73.168;2023-04-28T15:41:45;525.00;501.00;299.75
73825;PMS5003;64145;55.060;73.168;2023-04-28T15:44:20;503.75;477.50;283.25
73825;PMS5003;64145;55.060;73.168;2023-04-28T15:46:46;511.00;488.67;292.33
73825;PMS5003;64145;55.060;73.168;2023-04-28T15:49:39;525.00;501.75;304.50
73825;PMS5003;64145;55.060;73.168;2023-04-28T15:52:05;519.00;495.67;299.67